createdAt,value
2022-09-06T00:00:02.326Z,0.117
2022-09-06T00:05:02.240Z,0.12
2022-09-06T00:10:02.448Z,0.134
2022-09-06T00:15:02.280Z,0.178
2022-09-06T00:20:02.339Z,0.176
2022-09-06T00:25:02.308Z,0.17400000000000002
2022-09-06T00:30:02.668Z,0.132
2022-09-06T00:35:02.286Z,0.127
2022-09-06T00:40:02.450Z,0.13
2022-09-06T00:45:02.284Z,0.121
2022-09-06T00:50:02.468Z,0.11800000000000001
2022-09-06T00:55:02.301Z,0.125
2022-09-06T01:00:02.363Z,0.168
2022-09-06T01:05:02.281Z,0.166
2022-09-06T01:10:02.607Z,0.166
2022-09-06T01:15:02.298Z,0.127
2022-09-06T01:20:02.306Z,0.113
2022-09-06T01:25:02.471Z,0.124
2022-09-06T01:30:02.451Z,0.13
2022-09-06T01:35:02.311Z,0.126
2022-09-06T01:40:02.475Z,0.124
2022-09-06T01:45:02.549Z,0.165
2022-09-06T01:50:02.461Z,0.168
2022-09-06T01:55:02.377Z,0.166
2022-09-06T02:00:02.335Z,0.125
2022-09-06T02:05:02.513Z,0.13
2022-09-06T02:10:02.322Z,0.128
2022-09-06T02:15:02.320Z,0.129
2022-09-06T02:20:02.472Z,0.131
2022-09-06T02:25:02.379Z,0.14
2022-09-06T02:30:02.410Z,0.177
2022-09-06T02:35:02.339Z,0.18
2022-09-06T02:40:02.592Z,0.179
2022-09-06T02:45:02.600Z,0.132
2022-09-06T02:50:02.394Z,0.117
2022-09-06T02:55:02.389Z,0.116
2022-09-06T03:00:02.526Z,0.11900000000000001
2022-09-06T03:05:02.382Z,0.117
2022-09-06T03:10:02.389Z,0.115
2022-09-06T03:15:02.584Z,0.162
2022-09-06T03:20:02.610Z,0.17
2022-09-06T03:25:02.450Z,0.179
2022-09-06T03:30:02.420Z,0.14
2022-09-06T03:35:02.487Z,0.11900000000000001
2022-09-06T03:40:02.478Z,0.11800000000000001
2022-09-06T03:45:02.415Z,0.11900000000000001
2022-09-06T03:50:02.416Z,0.11900000000000001
2022-09-06T03:55:02.612Z,0.124
2022-09-06T04:00:02.788Z,0.178
2022-09-06T04:05:02.437Z,0.178
2022-09-06T04:10:02.489Z,0.177
2022-09-06T04:15:02.778Z,0.14
2022-09-06T04:20:02.539Z,0.054
2022-09-06T04:25:02.461Z,0
2022-09-06T04:30:02.451Z,0
2022-09-06T04:35:02.967Z,0
2022-09-06T04:40:02.566Z,1.926
2022-09-06T04:45:02.498Z,30.23
2022-09-06T04:50:02.467Z,28.218
2022-09-06T04:55:02.650Z,36.276
2022-09-06T05:00:02.566Z,36.711
2022-09-06T05:05:02.549Z,50.157000000000004
2022-09-06T05:10:02.532Z,60.173
2022-09-06T05:15:02.591Z,62.946
2022-09-06T05:20:02.594Z,89.262
2022-09-06T05:25:02.707Z,104.018
2022-09-06T05:30:02.696Z,121.313
2022-09-06T05:35:02.531Z,153.5
2022-09-06T05:40:02.836Z,183.622
2022-09-06T05:45:02.600Z,218.889
2022-09-06T05:50:02.691Z,288.403
2022-09-06T05:55:02.551Z,278.558
2022-09-06T06:00:02.625Z,310.04
2022-09-06T06:05:02.584Z,535.839
2022-09-06T06:10:02.759Z,905.479
2022-09-06T06:15:02.546Z,649.724
2022-09-06T06:20:02.547Z,437.004
2022-09-06T06:25:02.724Z,1182.64
2022-09-06T06:30:02.583Z,1388.515
2022-09-06T06:35:02.725Z,1562.463
2022-09-06T06:40:02.713Z,1741.788
2022-09-06T06:45:02.750Z,1941.265
2022-09-06T06:50:02.562Z,2139.862
2022-09-06T06:55:02.622Z,2276.629
2022-09-06T07:00:02.707Z,2453.359
2022-09-06T07:05:02.769Z,2639.531
2022-09-06T07:15:02.629Z,3000.306
2022-09-06T07:20:16.079Z,3171.118
2022-09-06T07:25:02.734Z,3342.872
2022-09-06T07:30:02.600Z,3518.23
2022-09-06T07:35:02.601Z,3681.065
2022-09-06T07:40:02.899Z,3868.406
2022-09-06T07:45:02.616Z,4025.034
2022-09-06T07:55:02.723Z,3610.91
2022-09-06T08:00:02.607Z,4147.761
2022-09-06T08:05:02.803Z,5295.638
2022-09-06T08:10:02.639Z,5188.216
2022-09-06T08:15:02.810Z,5219.691
2022-09-06T08:20:02.712Z,5303.814
2022-09-06T08:25:02.712Z,4586.392
2022-09-06T08:30:02.716Z,2522.855
2022-09-06T08:35:02.750Z,3460.0080000000003
2022-09-06T08:40:02.708Z,2063.776
2022-09-06T08:45:02.701Z,1849.3600000000001
2022-09-06T08:50:02.875Z,1676.693
2022-09-06T08:55:02.688Z,2610.857
2022-09-06T09:00:02.700Z,2407.318
2022-09-06T09:05:02.725Z,2310.9900000000002
2022-09-06T09:10:02.689Z,1832.886
2022-09-06T09:15:02.766Z,2463.444
2022-09-06T09:20:02.837Z,2727.266
2022-09-06T09:25:02.962Z,1444.611
2022-09-06T09:35:02.687Z,4562.927
2022-09-06T09:40:02.909Z,5677.277
2022-09-06T09:45:02.706Z,5740.455
2022-09-06T09:50:01.400Z,6817.829
2022-09-06T09:55:01.294Z,2918.137
2022-09-06T10:00:01.342Z,1707.29
2022-09-06T10:05:01.321Z,6060.073
2022-09-06T10:10:01.515Z,7443.676
2022-09-06T10:15:03.592Z,4105.938
2022-09-06T10:20:01.295Z,7945.087
2022-09-06T10:25:01.539Z,6637.515
2022-09-06T10:30:01.421Z,7598.251
2022-09-06T10:35:01.347Z,7300.484
2022-09-06T10:40:01.558Z,7551.655
2022-09-06T10:45:01.328Z,7479.379
2022-09-06T10:50:01.314Z,7675.923
2022-09-06T10:55:01.462Z,7619.8150000000005
2022-09-06T11:00:01.393Z,7695.145
2022-09-06T11:10:01.444Z,6097.758
2022-09-06T11:15:01.331Z,8188.936000000001
2022-09-06T11:20:01.392Z,7940.716
2022-09-06T11:25:01.512Z,5600.795
2022-09-06T11:30:01.416Z,3708.052
2022-09-06T11:35:01.366Z,3321.2780000000002
2022-09-06T11:40:29.904Z,4195.933
2022-09-06T11:45:01.430Z,2513.977
2022-09-06T11:50:01.505Z,2678.4700000000003
2022-09-06T11:55:01.390Z,2718.301
2022-09-06T12:00:01.343Z,2232.406
2022-09-06T12:05:01.410Z,2100.946
2022-09-06T12:25:01.432Z,1387.988
2022-09-06T12:30:01.494Z,1014.7660000000001
2022-09-06T12:40:01.636Z,1168.492
2022-09-06T12:45:01.473Z,1217.356
2022-09-06T12:50:01.442Z,1389.218
2022-09-06T12:55:01.537Z,1705.246
2022-09-06T13:00:01.461Z,1491.412
2022-09-06T13:05:01.453Z,1193.642
2022-09-06T13:10:01.429Z,903.63
2022-09-06T13:15:01.647Z,952.4350000000001
2022-09-06T13:20:01.593Z,1229.934
2022-09-06T13:25:01.522Z,1639.863
2022-09-06T13:30:01.516Z,1516.511
2022-09-06T13:35:01.493Z,1061.377
2022-09-06T13:40:01.622Z,1016.729
2022-09-06T13:45:02.381Z,1060.061
2022-09-06T13:50:01.486Z,967.4680000000001
2022-09-06T13:55:01.486Z,834.889
2022-09-06T14:00:01.686Z,1219.204
2022-09-06T14:05:01.536Z,2662.721
2022-09-06T14:10:01.635Z,2512.929
2022-09-06T14:15:01.654Z,1717.178
2022-09-06T14:20:01.586Z,1328.794
2022-09-06T14:25:01.522Z,1374.413
2022-09-06T14:30:01.690Z,1167.42
2022-09-06T14:35:01.492Z,1034.132
2022-09-06T14:40:01.725Z,1040.237
2022-09-06T14:45:01.685Z,1210.261
2022-09-06T14:50:01.540Z,1171.577
2022-09-06T14:55:01.587Z,1401.111
2022-09-06T15:00:01.642Z,2394.043
2022-09-06T15:05:01.588Z,982.0260000000001
2022-09-06T15:10:01.538Z,1098.811
2022-09-06T15:15:01.543Z,1216.484
2022-09-06T15:20:01.539Z,1181.2350000000001
2022-09-06T15:25:01.566Z,3337.9410000000003
2022-09-06T15:30:01.638Z,4715.075
2022-09-06T15:35:04.601Z,3654.071
2022-09-06T15:40:01.623Z,1318.146
2022-09-06T15:45:01.756Z,624.856
2022-09-06T15:50:01.768Z,655.253
2022-09-06T15:55:01.606Z,727.761
2022-09-06T16:00:01.635Z,705.849
2022-09-06T16:05:01.637Z,683.2090000000001
2022-09-06T16:10:01.809Z,1240.259
2022-09-06T16:15:01.598Z,927.647
2022-09-06T16:20:01.607Z,2568.833
2022-09-06T16:25:01.821Z,951.963
2022-09-06T16:30:01.612Z,614.236
2022-09-06T16:35:01.614Z,567.481
2022-09-06T16:40:01.850Z,396.523
2022-09-06T16:45:01.649Z,306.30400000000003
2022-09-06T16:50:01.685Z,262.895
2022-09-06T16:55:01.675Z,191.135
2022-09-06T17:00:01.838Z,170.05
2022-09-06T17:05:01.672Z,147.425
2022-09-06T17:10:01.742Z,114.37100000000001
2022-09-06T17:15:01.813Z,96.191
2022-09-06T17:20:01.669Z,73.529
2022-09-06T17:25:01.674Z,42.527
2022-09-06T17:30:01.681Z,24.977
2022-09-06T17:35:01.831Z,31.594
2022-09-06T17:40:01.766Z,13.571
2022-09-06T17:45:01.730Z,0.122
2022-09-06T17:50:01.866Z,0.092
2022-09-06T17:55:01.720Z,0.085
2022-09-06T18:00:01.707Z,0.088
2022-09-06T18:05:01.788Z,0.067
2022-09-06T18:10:01.940Z,0.068
2022-09-06T18:15:06.708Z,0.113
2022-09-06T18:20:01.713Z,0.123
2022-09-06T18:25:01.877Z,0.125
2022-09-06T18:30:01.737Z,0.123
2022-09-06T18:35:01.746Z,0.088
2022-09-06T18:40:01.828Z,0.089
2022-09-06T18:45:01.987Z,0.106
2022-09-06T18:50:01.747Z,0.129
2022-09-06T18:55:01.767Z,0.127
2022-09-06T19:00:01.806Z,0.151
2022-09-06T19:05:02.178Z,0.166
2022-09-06T19:10:01.757Z,0.163
2022-09-06T19:15:01.747Z,0.149
2022-09-06T19:20:01.872Z,0.115
2022-09-06T19:25:01.824Z,0.123
2022-09-06T19:30:01.749Z,0.133
2022-09-06T19:35:01.785Z,0.134
2022-09-06T19:40:01.989Z,0.134
2022-09-06T19:45:01.840Z,0.164
2022-09-06T19:50:01.800Z,0.176
2022-09-06T19:55:01.834Z,0.166
2022-09-06T20:00:01.998Z,0.148
2022-09-06T20:05:01.806Z,0.099
2022-09-06T20:10:01.856Z,2.685
2022-09-06T20:15:01.922Z,0.657
2022-09-06T20:20:01.817Z,0.115
2022-09-06T20:25:01.872Z,0.468
2022-09-06T20:30:01.894Z,0.15
2022-09-06T20:35:01.986Z,0.197
2022-09-06T20:40:01.874Z,0.18
2022-09-06T20:45:01.851Z,0.274
2022-09-06T20:50:01.866Z,0.127
2022-09-06T20:55:02.033Z,0.132
2022-09-06T21:00:01.907Z,0.111
2022-09-06T21:05:01.958Z,0.128
2022-09-06T21:10:01.833Z,0.598
2022-09-06T21:15:02.038Z,1.328
2022-09-06T21:20:01.950Z,1.292
2022-09-06T21:25:01.889Z,1.242
2022-09-06T21:30:01.894Z,1.323
2022-09-06T21:35:02.048Z,1.233
2022-09-06T21:40:01.982Z,0.11
2022-09-06T21:45:01.872Z,0.111
2022-09-06T21:50:05.935Z,0.124
2022-09-06T21:55:05.947Z,0.123
2022-09-06T22:00:05.978Z,0.158
2022-09-06T22:05:05.939Z,0.166
2022-09-06T22:10:06.067Z,0.166
2022-09-06T22:15:05.966Z,0.14200000000000002
2022-09-06T22:20:05.971Z,0.115
2022-09-06T22:25:06.031Z,0.116
2022-09-06T22:30:06.122Z,0.123
2022-09-06T22:35:05.949Z,0.127
2022-09-06T22:40:06.059Z,0.128
2022-09-06T22:45:05.944Z,0.164
2022-09-06T22:50:06.135Z,0.179
2022-09-06T22:55:06.045Z,0.176
2022-09-06T23:00:05.984Z,0.178
2022-09-06T23:05:06.053Z,0.125
2022-09-06T23:10:06.167Z,0.11800000000000001
2022-09-06T23:15:06.081Z,0.116
2022-09-06T23:20:05.978Z,0.11900000000000001
2022-09-06T23:25:06.119Z,0.117
2022-09-06T23:30:06.162Z,0.133
2022-09-06T23:35:06.167Z,0.157
2022-09-06T23:40:09.052Z,0.162
2022-09-06T23:45:06.132Z,0.165
2022-09-06T23:50:06.288Z,0.129
2022-09-06T23:55:06.047Z,0.126
